Normandy — WDI3305 — position and weather

sailwx.info

Track history (hours):
 
Tides and Currents Weather Stations Pressure Air Temp Water Temp Dewpoint Dewpoint Depression Visibility Wind Speed Wind Dir Waves Ship Positions

Normandy

Owner: Metropolitan Marine Transportation, Inc., Staten Island, NY. More information available from US FCC via Universal Licensing System and Coast Guard Vessel Documentation Center.

Last reported at 2018-Jun-22 17:00 UTC. Time now 2018-Jun-22 17:01 UTC.
Position N 40°46' W 074°00'.

Length 28 m.

Type: Towing. MMSI: 367686940.

Date/timePositionNaut miles runAvg speedWind from/ knotsBaromVisibWave heightAir tempDewpointWater temp
2018-Jun-22 17:00N 40°46' W 074°00'0 0.0
2018-Jun-22 11:18N 40°46' W 073°60'0 0.0
2018-Jun-22 10:56N 40°46' W 073°60'0 0.2
2018-Jun-22 10:30N 40°46' W 074°00'2 3.7
2018-Jun-22 09:59N 40°45' W 074°01'4 7.9
2018-Jun-22 09:30N 40°41' W 074°02'5 9.2
2018-Jun-22 09:00N 40°39' W 074°08'4 0.5
2018-Jun-22 00:53N 40°36' W 074°12'0 0.0
2018-Jun-22 00:21N 40°36' W 074°12'0 0.0
2018-Jun-21 23:50N 40°36' W 074°12'0 0.0
2018-Jun-21 23:23N 40°36' W 074°12'1 0.2
2018-Jun-21 20:07N 40°36' W 074°12'1 7.2
2018-Jun-21 20:00N 40°37' W 074°12'3 5.8
2018-Jun-21 19:30N 40°39' W 074°09'1 1.2
2018-Jun-21 18:47N 40°39' W 074°08'0 0.0
2018-Jun-21 18:19N 40°39' W 074°08'0 0.0
2018-Jun-21 18:00N 40°39' W 074°08'0 0.0
2018-Jun-21 17:31N 40°39' W 074°08'0 0.0
2018-Jun-21 17:00N 40°39' W 074°08'0 0.0
2018-Jun-21 16:30N 40°39' W 074°08'0 0.0
2018-Jun-21 16:00N 40°39' W 074°08'0 0.0
2018-Jun-21 15:19N 40°39' W 074°08'0 0.0
2018-Jun-21 14:59N 40°39' W 074°08'0 0.0
2018-Jun-21 14:26N 40°39' W 074°08'0 0.0
2018-Jun-21 13:58N 40°39' W 074°08'0 0.0
2018-Jun-21 13:06N 40°39' W 074°08'0 0.0
2018-Jun-21 11:06N 40°39' W 074°08'0 0.0
2018-Jun-21 10:04N 40°39' W 074°08'0 0.0
2018-Jun-21 09:35N 40°39' W 074°08'0 0.0
2018-Jun-21 09:26N 40°39' W 074°08'0 0.0
2018-Jun-21 08:05N 40°39' W 074°08'1 7.3
2018-Jun-21 08:00N 40°38' W 074°09'1 1.2
2018-Jun-21 07:30N 40°38' W 074°09'1 2.3
2018-Jun-21 07:00N 40°39' W 074°08'1 0.7
2018-Jun-21 04:55N 40°39' W 074°10'2 5.5
2018-Jun-21 04:30N 40°37' W 074°12'3 1.0
2018-Jun-21 01:20N 40°39' W 074°09'3 8.3
2018-Jun-21 01:00N 40°39' W 074°05'1 2.1
2018-Jun-21 00:30N 40°40' W 074°04'2 4.2
2018-Jun-21 00:00N 40°39' W 074°07'4 8.5
2018-Jun-20 23:30N 40°38' W 074°12'2 0.2
2018-Jun-20 16:57N 40°36' W 074°12'3 5.7
2018-Jun-20 16:23N 40°38' W 074°09'1 2.0
2018-Jun-20 16:00N 40°39' W 074°08'0 0.0
2018-Jun-20 15:20N 40°39' W 074°08'0 0.0
2018-Jun-20 14:59N 40°39' W 074°08'0 0.0
2018-Jun-20 14:30N 40°39' W 074°08'0 0.0
2018-Jun-20 14:00N 40°39' W 074°08'0 0.0
2018-Jun-20 13:30N 40°39' W 074°08'0 0.0
2018-Jun-20 13:00N 40°39' W 074°08'0 0.0
2018-Jun-20 12:30N 40°39' W 074°08'0 0.0
2018-Jun-20 11:59N 40°39' W 074°08'0 0.0
2018-Jun-20 11:30N 40°39' W 074°08'0 0.0
2018-Jun-20 11:00N 40°39' W 074°08'0 0.0
2018-Jun-20 10:30N 40°39' W 074°08'0 0.0
2018-Jun-20 10:00N 40°39' W 074°08'0 0.0
2018-Jun-20 09:30N 40°39' W 074°08'0 0.0
2018-Jun-20 07:55N 40°39' W 074°08'0 0.0
2018-Jun-20 07:30N 40°39' W 074°08'0 0.0
2018-Jun-20 07:00N 40°39' W 074°08'0 0.0
2018-Jun-20 06:30N 40°39' W 074°08'0 0.0
2018-Jun-20 06:00N 40°39' W 074°08'0 0.0
2018-Jun-20 02:44N 40°39' W 074°08'0 0.0
2018-Jun-20 02:28N 40°39' W 074°08'0 0.0
2018-Jun-20 01:59N 40°39' W 074°08'0 0.0
2018-Jun-20 01:29N 40°39' W 074°08'0 0.0
2018-Jun-20 01:00N 40°39' W 074°08'0 0.0
2018-Jun-20 00:14N 40°39' W 074°08'0 0.0
2018-Jun-19 23:59N 40°39' W 074°08'0 0.0
2018-Jun-19 23:29N 40°39' W 074°08'0 0.0
2018-Jun-19 22:43N 40°39' W 074°08'0 0.0
2018-Jun-19 22:29N 40°39' W 074°08'0 0.0
2018-Jun-19 21:52N 40°39' W 074°08'0 0.0
2018-Jun-19 21:30N 40°39' W 074°08'3 5.3
2018-Jun-19 20:58N 40°38' W 074°12'1 0.0
2018-Jun-18 15:41N 40°37' W 074°12'1 4.1
2018-Jun-18 15:29N 40°38' W 074°12'2 5.1
2018-Jun-18 15:00N 40°39' W 074°09'1 1.1
2018-Jun-18 14:30N 40°39' W 074°08'0 0.0
2018-Jun-18 14:00N 40°39' W 074°08'0 0.0
2018-Jun-18 13:30N 40°39' W 074°08'0 0.0
2018-Jun-18 13:00N 40°39' W 074°08'0 0.0
2018-Jun-18 12:29N 40°39' W 074°08'0 0.0
2018-Jun-18 11:59N 40°39' W 074°08'0 0.0
2018-Jun-18 11:30N 40°39' W 074°08'0 0.0
2018-Jun-18 10:58N 40°39' W 074°08'0 0.0
2018-Jun-18 10:30N 40°39' W 074°08'0 0.0
2018-Jun-18 10:00N 40°39' W 074°08'0 0.0
2018-Jun-18 09:30N 40°39' W 074°08'0 0.0
2018-Jun-18 09:00N 40°39' W 074°08'0 0.0
2018-Jun-18 08:30N 40°39' W 074°08'0 0.0
2018-Jun-18 08:00N 40°39' W 074°08'0 0.0
2018-Jun-18 07:30N 40°39' W 074°08'0 0.0
2018-Jun-18 07:00N 40°39' W 074°08'0 0.0
2018-Jun-18 06:30N 40°39' W 074°08'0 0.0
2018-Jun-18 05:44N 40°39' W 074°08'0 0.0
2018-Jun-18 05:30N 40°39' W 074°08'1 1.7
2018-Jun-18 05:00N 40°39' W 074°07'0 0.1
2018-Jun-18 04:28N 40°39' W 074°07'0 0.0
2018-Jun-18 04:00N 40°39' W 074°07'0 0.0
2018-Jun-18 03:30N 40°39' W 074°07'0 0.1
2018-Jun-18 03:00N 40°39' W 074°07'0 0.1
2018-Jun-18 02:28N 40°39' W 074°07'1 1.2
2018-Jun-18 02:00N 40°39' W 074°08'0 0.6
2018-Jun-18 01:30N 40°39' W 074°08'0 0.0
2018-Jun-18 01:00N 40°39' W 074°08'0 0.0
2018-Jun-18 00:30N 40°39' W 074°08'0 0.0
2018-Jun-18 00:00N 40°39' W 074°08'0 0.0
2018-Jun-17 23:30N 40°39' W 074°08'0 0.0
2018-Jun-17 23:00N 40°39' W 074°08'0 0.0
2018-Jun-17 22:30N 40°39' W 074°08'3 5.1
2018-Jun-17 22:00N 40°39' W 074°11'3 0.3
2018-Jun-17 12:01N 40°36' W 074°12'0 0.0
2018-Jun-17 12:00N 40°36' W 074°12'0 0.0
2018-Jun-17 11:30N 40°36' W 074°12'2 0.1
2018-Jun-16 14:43N 40°37' W 074°12'1 5.2
2018-Jun-16 14:27N 40°39' W 074°11'3 5.8
2018-Jun-16 14:00N 40°39' W 074°08'0 0.0
2018-Jun-16 13:28N 40°39' W 074°08'0 0.0
2018-Jun-16 12:58N 40°39' W 074°08'0 0.0
2018-Jun-16 12:28N 40°39' W 074°08'0 0.0
2018-Jun-16 11:58N 40°39' W 074°08'0 0.0
2018-Jun-16 11:30N 40°39' W 074°08'0 0.0
2018-Jun-16 11:00N 40°39' W 074°08'0 0.0
2018-Jun-16 10:30N 40°39' W 074°08'0 0.0
2018-Jun-16 10:00N 40°39' W 074°08'0 0.0
2018-Jun-16 09:30N 40°39' W 074°08'0 0.0
2018-Jun-16 09:00N 40°39' W 074°08'0 0.0
2018-Jun-16 08:30N 40°39' W 074°08'0 0.0
2018-Jun-16 08:00N 40°39' W 074°08'0 0.0
2018-Jun-16 07:30N 40°39' W 074°08'0 0.0
2018-Jun-16 07:00N 40°39' W 074°08'0 0.0
2018-Jun-16 06:30N 40°39' W 074°08'0 0.0
2018-Jun-16 06:00N 40°39' W 074°08'0 0.0
2018-Jun-16 05:30N 40°39' W 074°08'0 0.0
2018-Jun-16 05:01N 40°39' W 074°08'0 0.0
2018-Jun-16 04:30N 40°39' W 074°08'0 0.0
2018-Jun-16 04:00N 40°39' W 074°08'0 0.0
2018-Jun-16 03:30N 40°39' W 074°08'0 0.0
2018-Jun-16 02:07N 40°39' W 074°08'0 0.0
2018-Jun-16 01:47N 40°39' W 074°08'0 0.0
2018-Jun-16 01:29N 40°39' W 074°08'0 0.0
2018-Jun-16 00:45N 40°39' W 074°08'0 0.0
2018-Jun-16 00:30N 40°39' W 074°08'0 0.0
2018-Jun-16 00:00N 40°39' W 074°08'0 0.0
2018-Jun-15 23:30N 40°39' W 074°08'0 0.0
2018-Jun-15 23:00N 40°39' W 074°08'0 0.0
2018-Jun-15 22:25N 40°39' W 074°08'0 0.0
2018-Jun-15 22:00N 40°39' W 074°08'0 0.0
2018-Jun-15 21:30N 40°39' W 074°08'0 0.0
2018-Jun-15 21:00N 40°39' W 074°08'0 0.0
2018-Jun-15 20:30N 40°39' W 074°08'0 0.0
2018-Jun-15 20:00N 40°39' W 074°08'0 0.0
2018-Jun-15 19:30N 40°39' W 074°08'0 0.0
2018-Jun-15 19:00N 40°39' W 074°08'0 0.0
2018-Jun-15 18:30N 40°39' W 074°08'0 0.0
2018-Jun-15 18:00N 40°39' W 074°08'0 0.0
2018-Jun-15 17:30N 40°39' W 074°08'0 0.0
2018-Jun-15 16:59N 40°39' W 074°08'0 0.0
2018-Jun-15 16:30N 40°39' W 074°08'0 0.0
2018-Jun-15 15:59N 40°39' W 074°08'0 0.0
2018-Jun-15 15:29N 40°39' W 074°08'0 0.0
2018-Jun-15 14:59N 40°39' W 074°08'1 2.6
2018-Jun-15 14:30N 40°38' W 074°09'1 2.3
2018-Jun-15 13:59N 40°39' W 074°08'1 0.7
2018-Jun-15 12:01N 40°39' W 074°10'0 4.5
2018-Jun-15 12:00N 40°39' W 074°10'2 0.1
2018-Jun-13 16:40N 40°37' W 074°12'2 8.6
2018-Jun-13 16:30N 40°39' W 074°11'3 5.1
2018-Jun-13 15:59N 40°39' W 074°08'0 0.0
2018-Jun-13 15:29N 40°39' W 074°08'0 0.0
2018-Jun-13 15:00N 40°39' W 074°08'0 0.0
2018-Jun-13 14:30N 40°39' W 074°08'0 0.0
2018-Jun-13 13:59N 40°39' W 074°08'0 0.0
2018-Jun-13 13:30N 40°39' W 074°08'0 0.0
2018-Jun-13 13:00N 40°39' W 074°08'0 0.0
2018-Jun-13 12:29N 40°39' W 074°08'0 0.0
2018-Jun-13 12:00N 40°39' W 074°08'0 0.0
2018-Jun-13 11:30N 40°39' W 074°08'0 0.0
2018-Jun-13 11:00N 40°39' W 074°08'0 0.0
2018-Jun-13 10:30N 40°39' W 074°08'0 0.0
2018-Jun-13 10:00N 40°39' W 074°08'0 0.0
2018-Jun-13 09:30N 40°39' W 074°08'0 0.1
2018-Jun-13 09:00N 40°38' W 074°08'0 0.0
2018-Jun-13 08:30N 40°38' W 074°08'1 2.5
2018-Jun-13 08:00N 40°38' W 074°09'6 1.0
2018-Jun-13 01:42N 40°33' W 074°14'2 5.7
2018-Jun-13 01:25N 40°34' W 074°13'3 4.9
2018-Jun-13 00:50N 40°37' W 074°12'2 5.8
2018-Jun-13 00:28N 40°39' W 074°10'1 2.5
2018-Jun-13 00:01N 40°38' W 074°09'2 4.0
2018-Jun-12 23:30N 40°38' W 074°11'3 4.9
2018-Jun-12 22:57N 40°39' W 074°08'0 0.0
2018-Jun-12 22:30N 40°39' W 074°08'0 0.0
2018-Jun-12 22:00N 40°39' W 074°08'0 0.0
2018-Jun-12 21:30N 40°39' W 074°08'0 0.0
2018-Jun-12 21:00N 40°39' W 074°08'0 0.0
2018-Jun-12 20:30N 40°39' W 074°08'0 0.0
2018-Jun-12 20:00N 40°39' W 074°08'0 0.0
2018-Jun-12 19:30N 40°39' W 074°08'0 0.0
2018-Jun-12 18:57N 40°39' W 074°08'0 0.0
2018-Jun-12 18:30N 40°39' W 074°08'1 1.5
2018-Jun-12 17:53N 40°39' W 074°07'0 0.6
2018-Jun-12 17:30N 40°39' W 074°07'0 0.1
2018-Jun-12 17:01N 40°39' W 074°07'  
Track history (hours):
 
Tides and Currents Weather Stations Pressure Air Temp Water Temp Dewpoint Dewpoint Depression Visibility Wind Speed Wind Dir Waves Ship Positions

Normandy

Owner: Metropolitan Marine Transportation, Inc., Staten Island, NY. More information available from US FCC via Universal Licensing System and Coast Guard Vessel Documentation Center.

Last reported at 2018-Jun-22 17:00 UTC. Time now 2018-Jun-22 17:01 UTC.
Position N 40°46' W 074°00'.

Length 28 m.

Type: Towing. MMSI: 367686940.

Date/timePositionNaut miles runAvg speedWind from/ knotsBaromVisibWave heightAir tempDewpointWater temp
2018-Jun-22 17:00N 40°46' W 074°00'0 0.0
2018-Jun-22 11:18N 40°46' W 073°60'0 0.0
2018-Jun-22 10:56N 40°46' W 073°60'0 0.2
2018-Jun-22 10:30N 40°46' W 074°00'2 3.7
2018-Jun-22 09:59N 40°45' W 074°01'4 7.9
2018-Jun-22 09:30N 40°41' W 074°02'5 9.2
2018-Jun-22 09:00N 40°39' W 074°08'4 0.5
2018-Jun-22 00:53N 40°36' W 074°12'0 0.0
2018-Jun-22 00:21N 40°36' W 074°12'0 0.0
2018-Jun-21 23:50N 40°36' W 074°12'0 0.0
2018-Jun-21 23:23N 40°36' W 074°12'1 0.2
2018-Jun-21 20:07N 40°36' W 074°12'1 7.2
2018-Jun-21 20:00N 40°37' W 074°12'3 5.8
2018-Jun-21 19:30N 40°39' W 074°09'1 1.2
2018-Jun-21 18:47N 40°39' W 074°08'0 0.0
2018-Jun-21 18:19N 40°39' W 074°08'0 0.0
2018-Jun-21 18:00N 40°39' W 074°08'0 0.0
2018-Jun-21 17:31N 40°39' W 074°08'0 0.0
2018-Jun-21 17:00N 40°39' W 074°08'0 0.0
2018-Jun-21 16:30N 40°39' W 074°08'0 0.0
2018-Jun-21 16:00N 40°39' W 074°08'0 0.0
2018-Jun-21 15:19N 40°39' W 074°08'0 0.0
2018-Jun-21 14:59N 40°39' W 074°08'0 0.0
2018-Jun-21 14:26N 40°39' W 074°08'0 0.0
2018-Jun-21 13:58N 40°39' W 074°08'0 0.0
2018-Jun-21 13:06N 40°39' W 074°08'0 0.0
2018-Jun-21 11:06N 40°39' W 074°08'0 0.0
2018-Jun-21 10:04N 40°39' W 074°08'0 0.0
2018-Jun-21 09:35N 40°39' W 074°08'0 0.0
2018-Jun-21 09:26N 40°39' W 074°08'0 0.0
2018-Jun-21 08:05N 40°39' W 074°08'1 7.3
2018-Jun-21 08:00N 40°38' W 074°09'1 1.2
2018-Jun-21 07:30N 40°38' W 074°09'1 2.3
2018-Jun-21 07:00N 40°39' W 074°08'1 0.7
2018-Jun-21 04:55N 40°39' W 074°10'2 5.5
2018-Jun-21 04:30N 40°37' W 074°12'3 1.0
2018-Jun-21 01:20N 40°39' W 074°09'3 8.3
2018-Jun-21 01:00N 40°39' W 074°05'1 2.1
2018-Jun-21 00:30N 40°40' W 074°04'2 4.2
2018-Jun-21 00:00N 40°39' W 074°07'4 8.5
2018-Jun-20 23:30N 40°38' W 074°12'2 0.2
2018-Jun-20 16:57N 40°36' W 074°12'3 5.7
2018-Jun-20 16:23N 40°38' W 074°09'1 2.0
2018-Jun-20 16:00N 40°39' W 074°08'0 0.0
2018-Jun-20 15:20N 40°39' W 074°08'0 0.0
2018-Jun-20 14:59N 40°39' W 074°08'0 0.0
2018-Jun-20 14:30N 40°39' W 074°08'0 0.0
2018-Jun-20 14:00N 40°39' W 074°08'0 0.0
2018-Jun-20 13:30N 40°39' W 074°08'0 0.0
2018-Jun-20 13:00N 40°39' W 074°08'0 0.0
2018-Jun-20 12:30N 40°39' W 074°08'0 0.0
2018-Jun-20 11:59N 40°39' W 074°08'0 0.0
2018-Jun-20 11:30N 40°39' W 074°08'0 0.0
2018-Jun-20 11:00N 40°39' W 074°08'0 0.0
2018-Jun-20 10:30N 40°39' W 074°08'0 0.0
2018-Jun-20 10:00N 40°39' W 074°08'0 0.0
2018-Jun-20 09:30N 40°39' W 074°08'0 0.0
2018-Jun-20 07:55N 40°39' W 074°08'0 0.0
2018-Jun-20 07:30N 40°39' W 074°08'0 0.0
2018-Jun-20 07:00N 40°39' W 074°08'0 0.0
2018-Jun-20 06:30N 40°39' W 074°08'0 0.0
2018-Jun-20 06:00N 40°39' W 074°08'0 0.0
2018-Jun-20 02:44N 40°39' W 074°08'0 0.0
2018-Jun-20 02:28N 40°39' W 074°08'0 0.0
2018-Jun-20 01:59N 40°39' W 074°08'0 0.0
2018-Jun-20 01:29N 40°39' W 074°08'0 0.0
2018-Jun-20 01:00N 40°39' W 074°08'0 0.0
2018-Jun-20 00:14N 40°39' W 074°08'0 0.0
2018-Jun-19 23:59N 40°39' W 074°08'0 0.0
2018-Jun-19 23:29N 40°39' W 074°08'0 0.0
2018-Jun-19 22:43N 40°39' W 074°08'0 0.0
2018-Jun-19 22:29N 40°39' W 074°08'0 0.0
2018-Jun-19 21:52N 40°39' W 074°08'0 0.0
2018-Jun-19 21:30N 40°39' W 074°08'3 5.3
2018-Jun-19 20:58N 40°38' W 074°12'1 0.0
2018-Jun-18 15:41N 40°37' W 074°12'1 4.1
2018-Jun-18 15:29N 40°38' W 074°12'2 5.1
2018-Jun-18 15:00N 40°39' W 074°09'1 1.1
2018-Jun-18 14:30N 40°39' W 074°08'0 0.0
2018-Jun-18 14:00N 40°39' W 074°08'0 0.0
2018-Jun-18 13:30N 40°39' W 074°08'0 0.0
2018-Jun-18 13:00N 40°39' W 074°08'0 0.0
2018-Jun-18 12:29N 40°39' W 074°08'0 0.0
2018-Jun-18 11:59N 40°39' W 074°08'0 0.0
2018-Jun-18 11:30N 40°39' W 074°08'0 0.0
2018-Jun-18 10:58N 40°39' W 074°08'0 0.0
2018-Jun-18 10:30N 40°39' W 074°08'0 0.0
2018-Jun-18 10:00N 40°39' W 074°08'0 0.0
2018-Jun-18 09:30N 40°39' W 074°08'0 0.0
2018-Jun-18 09:00N 40°39' W 074°08'0 0.0
2018-Jun-18 08:30N 40°39' W 074°08'0 0.0
2018-Jun-18 08:00N 40°39' W 074°08'0 0.0
2018-Jun-18 07:30N 40°39' W 074°08'0 0.0
2018-Jun-18 07:00N 40°39' W 074°08'0 0.0
2018-Jun-18 06:30N 40°39' W 074°08'0 0.0
2018-Jun-18 05:44N 40°39' W 074°08'0 0.0
2018-Jun-18 05:30N 40°39' W 074°08'1 1.7
2018-Jun-18 05:00N 40°39' W 074°07'0 0.1
2018-Jun-18 04:28N 40°39' W 074°07'0 0.0
2018-Jun-18 04:00N 40°39' W 074°07'0 0.0
2018-Jun-18 03:30N 40°39' W 074°07'0 0.1
2018-Jun-18 03:00N 40°39' W 074°07'0 0.1
2018-Jun-18 02:28N 40°39' W 074°07'1 1.2
2018-Jun-18 02:00N 40°39' W 074°08'0 0.6
2018-Jun-18 01:30N 40°39' W 074°08'0 0.0
2018-Jun-18 01:00N 40°39' W 074°08'0 0.0
2018-Jun-18 00:30N 40°39' W 074°08'0 0.0
2018-Jun-18 00:00N 40°39' W 074°08'0 0.0
2018-Jun-17 23:30N 40°39' W 074°08'0 0.0
2018-Jun-17 23:00N 40°39' W 074°08'0 0.0
2018-Jun-17 22:30N 40°39' W 074°08'3 5.1
2018-Jun-17 22:00N 40°39' W 074°11'3 0.3
2018-Jun-17 12:01N 40°36' W 074°12'0 0.0
2018-Jun-17 12:00N 40°36' W 074°12'0 0.0
2018-Jun-17 11:30N 40°36' W 074°12'2 0.1
2018-Jun-16 14:43N 40°37' W 074°12'1 5.2
2018-Jun-16 14:27N 40°39' W 074°11'3 5.8
2018-Jun-16 14:00N 40°39' W 074°08'0 0.0
2018-Jun-16 13:28N 40°39' W 074°08'0 0.0
2018-Jun-16 12:58N 40°39' W 074°08'0 0.0
2018-Jun-16 12:28N 40°39' W 074°08'0 0.0
2018-Jun-16 11:58N 40°39' W 074°08'0 0.0
2018-Jun-16 11:30N 40°39' W 074°08'0 0.0
2018-Jun-16 11:00N 40°39' W 074°08'0 0.0
2018-Jun-16 10:30N 40°39' W 074°08'0 0.0
2018-Jun-16 10:00N 40°39' W 074°08'0 0.0
2018-Jun-16 09:30N 40°39' W 074°08'0 0.0
2018-Jun-16 09:00N 40°39' W 074°08'0 0.0
2018-Jun-16 08:30N 40°39' W 074°08'0 0.0
2018-Jun-16 08:00N 40°39' W 074°08'0 0.0
2018-Jun-16 07:30N 40°39' W 074°08'0 0.0
2018-Jun-16 07:00N 40°39' W 074°08'0 0.0
2018-Jun-16 06:30N 40°39' W 074°08'0 0.0
2018-Jun-16 06:00N 40°39' W 074°08'0 0.0
2018-Jun-16 05:30N 40°39' W 074°08'0 0.0
2018-Jun-16 05:01N 40°39' W 074°08'0 0.0
2018-Jun-16 04:30N 40°39' W 074°08'0 0.0
2018-Jun-16 04:00N 40°39' W 074°08'0 0.0
2018-Jun-16 03:30N 40°39' W 074°08'0 0.0
2018-Jun-16 02:07N 40°39' W 074°08'0 0.0
2018-Jun-16 01:47N 40°39' W 074°08'0 0.0
2018-Jun-16 01:29N 40°39' W 074°08'0 0.0
2018-Jun-16 00:45N 40°39' W 074°08'0 0.0
2018-Jun-16 00:30N 40°39' W 074°08'0 0.0
2018-Jun-16 00:00N 40°39' W 074°08'0 0.0
2018-Jun-15 23:30N 40°39' W 074°08'0 0.0
2018-Jun-15 23:00N 40°39' W 074°08'0 0.0
2018-Jun-15 22:25N 40°39' W 074°08'0 0.0
2018-Jun-15 22:00N 40°39' W 074°08'0 0.0
2018-Jun-15 21:30N 40°39' W 074°08'0 0.0
2018-Jun-15 21:00N 40°39' W 074°08'0 0.0
2018-Jun-15 20:30N 40°39' W 074°08'0 0.0
2018-Jun-15 20:00N 40°39' W 074°08'0 0.0
2018-Jun-15 19:30N 40°39' W 074°08'0 0.0
2018-Jun-15 19:00N 40°39' W 074°08'0 0.0
2018-Jun-15 18:30N 40°39' W 074°08'0 0.0
2018-Jun-15 18:00N 40°39' W 074°08'0 0.0
2018-Jun-15 17:30N 40°39' W 074°08'0 0.0
2018-Jun-15 16:59N 40°39' W 074°08'0 0.0
2018-Jun-15 16:30N 40°39' W 074°08'0 0.0
2018-Jun-15 15:59N 40°39' W 074°08'0 0.0
2018-Jun-15 15:29N 40°39' W 074°08'0 0.0
2018-Jun-15 14:59N 40°39' W 074°08'1 2.6
2018-Jun-15 14:30N 40°38' W 074°09'1 2.3
2018-Jun-15 13:59N 40°39' W 074°08'1 0.7
2018-Jun-15 12:01N 40°39' W 074°10'0 4.5
2018-Jun-15 12:00N 40°39' W 074°10'2 0.1
2018-Jun-13 16:40N 40°37' W 074°12'2 8.6
2018-Jun-13 16:30N 40°39' W 074°11'3 5.1
2018-Jun-13 15:59N 40°39' W 074°08'0 0.0
2018-Jun-13 15:29N 40°39' W 074°08'0 0.0
2018-Jun-13 15:00N 40°39' W 074°08'0 0.0
2018-Jun-13 14:30N 40°39' W 074°08'0 0.0
2018-Jun-13 13:59N 40°39' W 074°08'0 0.0
2018-Jun-13 13:30N 40°39' W 074°08'0 0.0
2018-Jun-13 13:00N 40°39' W 074°08'0 0.0
2018-Jun-13 12:29N 40°39' W 074°08'0 0.0
2018-Jun-13 12:00N 40°39' W 074°08'0 0.0
2018-Jun-13 11:30N 40°39' W 074°08'0 0.0
2018-Jun-13 11:00N 40°39' W 074°08'0 0.0
2018-Jun-13 10:30N 40°39' W 074°08'0 0.0
2018-Jun-13 10:00N 40°39' W 074°08'0 0.0
2018-Jun-13 09:30N 40°39' W 074°08'0 0.1
2018-Jun-13 09:00N 40°38' W 074°08'0 0.0
2018-Jun-13 08:30N 40°38' W 074°08'1 2.5
2018-Jun-13 08:00N 40°38' W 074°09'6 1.0
2018-Jun-13 01:42N 40°33' W 074°14'2 5.7
2018-Jun-13 01:25N 40°34' W 074°13'3 4.9
2018-Jun-13 00:50N 40°37' W 074°12'2 5.8
2018-Jun-13 00:28N 40°39' W 074°10'1 2.5
2018-Jun-13 00:01N 40°38' W 074°09'2 4.0
2018-Jun-12 23:30N 40°38' W 074°11'3 4.9
2018-Jun-12 22:57N 40°39' W 074°08'0 0.0
2018-Jun-12 22:30N 40°39' W 074°08'0 0.0
2018-Jun-12 22:00N 40°39' W 074°08'0 0.0
2018-Jun-12 21:30N 40°39' W 074°08'0 0.0
2018-Jun-12 21:00N 40°39' W 074°08'0 0.0
2018-Jun-12 20:30N 40°39' W 074°08'0 0.0
2018-Jun-12 20:00N 40°39' W 074°08'0 0.0
2018-Jun-12 19:30N 40°39' W 074°08'0 0.0
2018-Jun-12 18:57N 40°39' W 074°08'0 0.0
2018-Jun-12 18:30N 40°39' W 074°08'1 1.5
2018-Jun-12 17:53N 40°39' W 074°07'0 0.6
2018-Jun-12 17:30N 40°39' W 074°07'0 0.1
2018-Jun-12 17:01N 40°39' W 074°07'  

Dump ship's entire track history